sensor_id;sensor_type;location;lat;lon;timestamp;P1;durP1;ratioP1;P2;durP2;ratioP2
84303;SDS011;74469;52.520;16.998;2024-03-08T00:00:31;38.10;;;14.60;;
84303;SDS011;74469;52.520;16.998;2024-03-08T00:06:15;34.30;;;13.20;;
84303;SDS011;74469;52.520;16.998;2024-03-08T00:11:18;31.50;;;12.60;;
84303;SDS011;74469;52.520;16.998;2024-03-08T00:16:21;27.30;;;9.90;;
84303;SDS011;74469;52.520;16.998;2024-03-08T00:21:25;21.00;;;8.70;;
84303;SDS011;74469;52.520;16.998;2024-03-08T00:26:29;18.40;;;8.30;;
84303;SDS011;74469;52.520;16.998;2024-03-08T00:31:32;21.70;;;12.10;;
84303;SDS011;74469;52.520;16.998;2024-03-08T00:36:35;22.20;;;9.60;;
84303;SDS011;74469;52.520;16.998;2024-03-08T00:41:40;21.90;;;9.90;;
84303;SDS011;74469;52.520;16.998;2024-03-08T00:47:13;11.70;;;6.50;;
84303;SDS011;74469;52.520;16.998;2024-03-08T00:52:20;23.40;;;9.50;;
84303;SDS011;74469;52.520;16.998;2024-03-08T00:57:25;18.60;;;6.10;;
84303;SDS011;74469;52.520;16.998;2024-03-08T01:02:28;18.60;;;9.20;;
84303;SDS011;74469;52.520;16.998;2024-03-08T01:07:31;24.80;;;9.40;;
84303;SDS011;74469;52.520;16.998;2024-03-08T01:12:35;24.10;;;7.70;;
84303;SDS011;74469;52.520;16.998;2024-03-08T01:17:38;21.90;;;7.90;;
84303;SDS011;74469;52.520;16.998;2024-03-08T01:22:40;25.00;;;7.70;;
84303;SDS011;74469;52.520;16.998;2024-03-08T01:27:43;23.70;;;9.00;;
84303;SDS011;74469;52.520;16.998;2024-03-08T01:32:46;28.70;;;9.80;;
84303;SDS011;74469;52.520;16.998;2024-03-08T01:37:49;23.20;;;9.80;;
84303;SDS011;74469;52.520;16.998;2024-03-08T01:42:52;30.20;;;10.70;;
84303;SDS011;74469;52.520;16.998;2024-03-08T01:47:55;24.10;;;8.40;;
84303;SDS011;74469;52.520;16.998;2024-03-08T01:52:58;21.80;;;10.40;;
84303;SDS011;74469;52.520;16.998;2024-03-08T01:58:05;22.50;;;10.20;;
84303;SDS011;74469;52.520;16.998;2024-03-08T02:03:08;32.90;;;12.20;;
84303;SDS011;74469;52.520;16.998;2024-03-08T02:08:10;39.60;;;15.40;;
84303;SDS011;74469;52.520;16.998;2024-03-08T02:13:17;29.70;;;12.20;;
84303;SDS011;74469;52.520;16.998;2024-03-08T02:18:23;18.50;;;7.70;;
84303;SDS011;74469;52.520;16.998;2024-03-08T02:23:26;21.40;;;9.10;;
84303;SDS011;74469;52.520;16.998;2024-03-08T02:28:29;28.90;;;11.00;;
84303;SDS011;74469;52.520;16.998;2024-03-08T02:33:32;29.60;;;10.90;;
84303;SDS011;74469;52.520;16.998;2024-03-08T02:38:35;22.30;;;10.90;;
84303;SDS011;74469;52.520;16.998;2024-03-08T02:43:37;32.10;;;12.60;;
84303;SDS011;74469;52.520;16.998;2024-03-08T02:48:40;32.10;;;13.20;;
84303;SDS011;74469;52.520;16.998;2024-03-08T02:53:43;25.10;;;9.70;;
84303;SDS011;74469;52.520;16.998;2024-03-08T02:58:46;35.50;;;12.20;;
84303;SDS011;74469;52.520;16.998;2024-03-08T03:03:51;30.20;;;11.60;;
84303;SDS011;74469;52.520;16.998;2024-03-08T03:08:53;27.60;;;9.50;;
84303;SDS011;74469;52.520;16.998;2024-03-08T03:13:56;25.40;;;10.80;;
84303;SDS011;74469;52.520;16.998;2024-03-08T03:18:59;26.10;;;9.80;;
84303;SDS011;74469;52.520;16.998;2024-03-08T03:24:04;31.90;;;14.60;;
84303;SDS011;74469;52.520;16.998;2024-03-08T03:29:12;33.40;;;13.60;;
84303;SDS011;74469;52.520;16.998;2024-03-08T03:40:29;14.20;;;7.80;;
84303;SDS011;74469;52.520;16.998;2024-03-08T03:52:28;18.10;;;6.60;;
84303;SDS011;74469;52.520;16.998;2024-03-08T04:03:52;20.90;;;7.70;;
84303;SDS011;74469;52.520;16.998;2024-03-08T04:39:10;13.80;;;6.00;;
84303;SDS011;74469;52.520;16.998;2024-03-08T04:44:42;20.00;;;6.30;;
84303;SDS011;74469;52.520;16.998;2024-03-08T04:55:57;15.30;;;5.80;;
84303;SDS011;74469;52.520;16.998;2024-03-08T05:01:17;19.20;;;7.30;;
84303;SDS011;74469;52.520;16.998;2024-03-08T06:11:27;15.60;;;6.80;;
84303;SDS011;74469;52.520;16.998;2024-03-08T06:22:53;20.70;;;7.80;;
84303;SDS011;74469;52.520;16.998;2024-03-08T06:28:22;26.50;;;8.90;;
84303;SDS011;74469;52.520;16.998;2024-03-08T06:34:21;26.70;;;8.90;;
84303;SDS011;74469;52.520;16.998;2024-03-08T06:57:56;27.80;;;11.30;;
84303;SDS011;74469;52.520;16.998;2024-03-08T07:26:36;26.80;;;14.80;;
84303;SDS011;74469;52.520;16.998;2024-03-08T07:37:48;30.60;;;14.70;;
84303;SDS011;74469;52.520;16.998;2024-03-08T07:43:37;32.00;;;16.30;;
84303;SDS011;74469;52.520;16.998;2024-03-08T07:54:46;38.90;;;18.30;;
84303;SDS011;74469;52.520;16.998;2024-03-08T08:00:22;34.00;;;19.30;;
84303;SDS011;74469;52.520;16.998;2024-03-08T08:11:31;40.40;;;23.00;;
84303;SDS011;74469;52.520;16.998;2024-03-08T08:16:56;45.80;;;24.20;;
84303;SDS011;74469;52.520;16.998;2024-03-08T08:22:16;36.10;;;21.30;;
84303;SDS011;74469;52.520;16.998;2024-03-08T08:27:47;34.60;;;20.10;;
84303;SDS011;74469;52.520;16.998;2024-03-08T08:33:05;29.80;;;18.40;;
84303;SDS011;74469;52.520;16.998;2024-03-08T08:38:14;22.50;;;14.70;;
84303;SDS011;74469;52.520;16.998;2024-03-08T08:43:56;20.90;;;11.80;;
84303;SDS011;74469;52.520;16.998;2024-03-08T08:49:34;16.90;;;9.80;;
84303;SDS011;74469;52.520;16.998;2024-03-08T09:00:49;19.20;;;11.00;;
84303;SDS011;74469;52.520;16.998;2024-03-08T09:06:11;17.10;;;12.20;;
84303;SDS011;74469;52.520;16.998;2024-03-08T09:11:34;20.00;;;12.20;;
84303;SDS011;74469;52.520;16.998;2024-03-08T09:16:52;20.70;;;11.40;;
84303;SDS011;74469;52.520;16.998;2024-03-08T09:22:06;20.10;;;11.20;;
84303;SDS011;74469;52.520;16.998;2024-03-08T09:27:22;21.90;;;12.10;;
84303;SDS011;74469;52.520;16.998;2024-03-08T09:55:53;22.50;;;10.20;;
84303;SDS011;74469;52.520;16.998;2024-03-08T10:01:39;15.30;;;8.50;;
84303;SDS011;74469;52.520;16.998;2024-03-08T10:23:46;12.90;;;7.10;;
84303;SDS011;74469;52.520;16.998;2024-03-08T10:29:15;14.90;;;8.60;;
84303;SDS011;74469;52.520;16.998;2024-03-08T10:40:31;15.40;;;8.20;;
84303;SDS011;74469;52.520;16.998;2024-03-08T10:45:54;15.70;;;7.80;;
84303;SDS011;74469;52.520;16.998;2024-03-08T10:51:32;15.20;;;8.70;;
84303;SDS011;74469;52.520;16.998;2024-03-08T10:57:08;14.40;;;8.20;;
84303;SDS011;74469;52.520;16.998;2024-03-08T11:02:36;18.10;;;9.50;;
84303;SDS011;74469;52.520;16.998;2024-03-08T11:08:05;13.40;;;9.30;;
84303;SDS011;74469;52.520;16.998;2024-03-08T11:24:24;12.40;;;8.80;;
84303;SDS011;74469;52.520;16.998;2024-03-08T11:29:43;14.80;;;9.10;;
84303;SDS011;74469;52.520;16.998;2024-03-08T11:34:49;15.70;;;10.20;;
84303;SDS011;74469;52.520;16.998;2024-03-08T11:39:58;15.80;;;9.60;;
84303;SDS011;74469;52.520;16.998;2024-03-08T11:45:25;13.80;;;8.60;;
84303;SDS011;74469;52.520;16.998;2024-03-08T11:51:02;17.90;;;11.20;;
84303;SDS011;74469;52.520;16.998;2024-03-08T11:56:27;17.20;;;9.90;;
84303;SDS011;74469;52.520;16.998;2024-03-08T12:02:27;14.90;;;9.50;;
84303;SDS011;74469;52.520;16.998;2024-03-08T12:07:38;12.90;;;8.80;;
84303;SDS011;74469;52.520;16.998;2024-03-08T12:12:57;15.60;;;9.60;;
84303;SDS011;74469;52.520;16.998;2024-03-08T12:18:28;17.10;;;10.60;;
84303;SDS011;74469;52.520;16.998;2024-03-08T12:23:35;17.00;;;10.60;;
84303;SDS011;74469;52.520;16.998;2024-03-08T12:28:47;15.50;;;9.70;;
84303;SDS011;74469;52.520;16.998;2024-03-08T12:33:54;21.20;;;12.20;;
84303;SDS011;74469;52.520;16.998;2024-03-08T12:39:01;16.80;;;9.50;;
84303;SDS011;74469;52.520;16.998;2024-03-08T12:44:06;17.30;;;9.70;;
84303;SDS011;74469;52.520;16.998;2024-03-08T12:49:16;15.10;;;10.20;;
84303;SDS011;74469;52.520;16.998;2024-03-08T12:54:35;17.20;;;9.80;;
84303;SDS011;74469;52.520;16.998;2024-03-08T13:05:44;15.20;;;10.20;;
84303;SDS011;74469;52.520;16.998;2024-03-08T13:11:01;13.30;;;9.40;;
84303;SDS011;74469;52.520;16.998;2024-03-08T13:21:43;18.30;;;10.00;;
84303;SDS011;74469;52.520;16.998;2024-03-08T13:26:51;17.00;;;10.20;;
84303;SDS011;74469;52.520;16.998;2024-03-08T13:32:05;13.30;;;8.30;;
84303;SDS011;74469;52.520;16.998;2024-03-08T13:38:03;18.50;;;10.10;;
84303;SDS011;74469;52.520;16.998;2024-03-08T13:43:15;12.40;;;8.10;;
84303;SDS011;74469;52.520;16.998;2024-03-08T13:48:41;15.30;;;8.50;;
84303;SDS011;74469;52.520;16.998;2024-03-08T13:53:59;16.40;;;8.80;;
84303;SDS011;74469;52.520;16.998;2024-03-08T13:59:31;15.50;;;9.10;;
84303;SDS011;74469;52.520;16.998;2024-03-08T14:04:42;16.10;;;9.80;;
84303;SDS011;74469;52.520;16.998;2024-03-08T14:15:22;16.20;;;9.70;;
84303;SDS011;74469;52.520;16.998;2024-03-08T14:20:39;21.60;;;10.70;;
84303;SDS011;74469;52.520;16.998;2024-03-08T14:26:15;14.30;;;7.80;;
84303;SDS011;74469;52.520;16.998;2024-03-08T14:37:11;11.30;;;7.10;;
84303;SDS011;74469;52.520;16.998;2024-03-08T14:42:41;16.60;;;8.70;;
84303;SDS011;74469;52.520;16.998;2024-03-08T14:48:04;11.60;;;7.30;;
84303;SDS011;74469;52.520;16.998;2024-03-08T14:53:23;13.10;;;8.70;;
84303;SDS011;74469;52.520;16.998;2024-03-08T15:04:20;16.10;;;8.40;;
84303;SDS011;74469;52.520;16.998;2024-03-08T15:09:43;25.30;;;11.00;;
84303;SDS011;74469;52.520;16.998;2024-03-08T15:15:13;18.10;;;9.70;;
84303;SDS011;74469;52.520;16.998;2024-03-08T15:20:39;25.50;;;11.10;;
84303;SDS011;74469;52.520;16.998;2024-03-08T15:37:43;14.40;;;7.70;;
84303;SDS011;74469;52.520;16.998;2024-03-08T15:43:09;14.20;;;6.90;;
84303;SDS011;74469;52.520;16.998;2024-03-08T15:49:00;23.30;;;9.90;;
84303;SDS011;74469;52.520;16.998;2024-03-08T16:00:46;20.60;;;10.10;;
84303;SDS011;74469;52.520;16.998;2024-03-08T16:06:42;33.00;;;13.00;;
84303;SDS011;74469;52.520;16.998;2024-03-08T16:18:07;27.60;;;11.40;;
84303;SDS011;74469;52.520;16.998;2024-03-08T16:23:34;37.10;;;15.30;;
84303;SDS011;74469;52.520;16.998;2024-03-08T16:29:16;27.80;;;10.90;;
84303;SDS011;74469;52.520;16.998;2024-03-08T16:40:11;23.40;;;10.20;;
84303;SDS011;74469;52.520;16.998;2024-03-08T16:45:46;28.60;;;12.40;;
84303;SDS011;74469;52.520;16.998;2024-03-08T17:02:27;16.70;;;7.90;;
84303;SDS011;74469;52.520;16.998;2024-03-08T17:24:57;14.80;;;6.70;;
84303;SDS011;74469;52.520;16.998;2024-03-08T17:30:33;28.50;;;10.60;;
84303;SDS011;74469;52.520;16.998;2024-03-08T17:36:12;31.60;;;13.80;;
84303;SDS011;74469;52.520;16.998;2024-03-08T17:42:01;37.10;;;16.20;;
84303;SDS011;74469;52.520;16.998;2024-03-08T17:59:27;64.40;;;22.60;;
84303;SDS011;74469;52.520;16.998;2024-03-08T18:05:03;63.40;;;20.50;;
84303;SDS011;74469;52.520;16.998;2024-03-08T18:27:43;38.20;;;15.90;;
84303;SDS011;74469;52.520;16.998;2024-03-08T18:38:56;85.80;;;26.50;;
84303;SDS011;74469;52.520;16.998;2024-03-08T18:50:27;33.00;;;15.70;;
84303;SDS011;74469;52.520;16.998;2024-03-08T19:01:57;37.20;;;16.80;;
84303;SDS011;74469;52.520;16.998;2024-03-08T19:30:14;26.50;;;11.10;;
84303;SDS011;74469;52.520;16.998;2024-03-08T19:35:43;36.20;;;13.90;;
84303;SDS011;74469;52.520;16.998;2024-03-08T19:41:21;30.60;;;12.70;;
84303;SDS011;74469;52.520;16.998;2024-03-08T19:46:46;32.90;;;13.20;;
84303;SDS011;74469;52.520;16.998;2024-03-08T20:15:42;34.20;;;15.10;;
84303;SDS011;74469;52.520;16.998;2024-03-08T20:27:28;23.20;;;12.30;;
84303;SDS011;74469;52.520;16.998;2024-03-08T20:38:55;30.90;;;13.20;;
84303;SDS011;74469;52.520;16.998;2024-03-08T20:50:27;26.10;;;10.20;;
84303;SDS011;74469;52.520;16.998;2024-03-08T20:55:55;28.00;;;9.50;;
84303;SDS011;74469;52.520;16.998;2024-03-08T21:01:22;21.60;;;9.60;;
84303;SDS011;74469;52.520;16.998;2024-03-08T21:06:58;23.30;;;9.50;;
84303;SDS011;74469;52.520;16.998;2024-03-08T21:24:36;25.90;;;10.50;;
84303;SDS011;74469;52.520;16.998;2024-03-08T22:06:09;20.90;;;8.80;;
84303;SDS011;74469;52.520;16.998;2024-03-08T23:35:18;26.00;;;9.90;;
84303;SDS011;74469;52.520;16.998;2024-03-08T23:40:52;23.30;;;9.90;;
84303;SDS011;74469;52.520;16.998;2024-03-08T23:52:51;30.80;;;13.70;;
